Time;durP1;ratioP1;P1;durP2;ratioP2;P2;SDS_P1;SDS_P2;PMS_P1;PMS_P2;Temp;Humidity;BMP_temperature;BMP_pressure;BME280_temperature;BME280_humidity;BME280_pressure;Samples;Min_cycle;Max_cycle;Signal;HPM_P1;HPM_P2
2023/02/10 00:00:35;;;;;;;8.02;7.20;;;;;;;2.38;100.00;103221.13;6027824;23;20014;-71
2023/02/10 00:03:02;;;;;;;7.28;6.45;;;;;;;2.39;100.00;103227.22;5998570;23;20019;-70
2023/02/10 00:05:28;;;;;;;7.45;6.75;;;;;;;1.96;100.00;103148.50;6022003;23;20025;-70
2023/02/10 00:07:56;;;;;;;10.52;7.65;;;;;;;2.40;100.00;103218.59;6001832;23;20219;-70
2023/02/10 00:10:22;;;;;;;9.73;6.35;;;;;;;2.39;100.00;103220.31;6020047;23;20068;-71
2023/02/10 00:12:49;;;;;;;10.43;7.75;;;;;;;2.36;100.00;103220.22;6004844;23;20031;-69
2023/02/10 00:15:15;;;;;;;8.52;7.20;;;;;;;2.38;100.00;103217.69;6022487;23;20023;-70
2023/02/10 00:17:42;;;;;;;13.90;8.20;;;;;;;2.26;100.00;103192.34;6025916;23;20026;-73
2023/02/10 00:20:08;;;;;;;10.60;8.25;;;;;;;2.36;100.00;103202.09;5992716;23;20557;-70
2023/02/10 00:22:35;;;;;;;8.65;7.80;;;;;;;2.33;100.00;103215.00;6024234;23;20199;-71
2023/02/10 00:25:02;;;;;;;9.50;8.60;;;;;;;2.30;100.00;103214.03;6014063;23;20421;-69
2023/02/10 00:27:29;;;;;;;8.98;7.72;;;;;;;2.22;100.00;103207.81;6021650;23;20105;-69
2023/02/10 00:29:56;;;;;;;10.85;6.85;;;;;;;2.25;100.00;103207.91;6049646;23;20286;-69
2023/02/10 00:32:22;;;;;;;10.57;7.38;;;;;;;2.05;100.00;103181.53;6049920;23;20635;-69
2023/02/10 00:34:48;;;;;;;10.75;7.40;;;;;;;1.80;100.00;103142.09;6047185;23;20030;-70
2023/02/10 00:37:15;;;;;;;7.10;6.50;;;;;;;2.01;100.00;103165.03;6037638;23;20097;-70
2023/02/10 00:39:41;;;;;;;14.18;9.95;;;;;;;2.27;100.00;103214.84;6018798;23;20186;-71
2023/02/10 00:42:08;;;;;;;11.15;8.20;;;;;;;2.28;100.00;103211.41;6026217;23;20124;-71
2023/02/10 00:44:34;;;;;;;12.35;7.43;;;;;;;2.22;100.00;103192.25;6053086;23;20097;-70
2023/02/10 00:47:01;;;;;;;12.30;8.85;;;;;;;2.38;100.00;103221.13;6053404;23;20030;-70
2023/02/10 00:49:28;;;;;;;8.02;7.35;;;;;;;2.13;100.00;103175.69;6050770;23;20014;-70
2023/02/10 00:51:54;;;;;;;6.18;5.68;;;;;;;2.37;100.00;103216.81;6000876;23;20047;-70
2023/02/10 00:54:20;;;;;;;8.57;6.35;;;;;;;2.08;100.00;103177.28;6032241;23;20022;-70
2023/02/10 00:56:47;;;;;;;7.88;7.15;;;;;;;2.20;100.00;103187.03;6054282;23;20025;-70
2023/02/10 00:59:15;;;;;;;9.77;7.85;;;;;;;2.15;100.00;103161.03;6044616;23;20026;-70
2023/02/10 01:01:41;;;;;;;9.48;6.57;;;;;;;2.45;100.00;103208.34;6061942;23;20057;-70
2023/02/10 01:04:08;;;;;;;12.02;7.38;;;;;;;2.38;100.00;103195.22;6059442;23;20022;-70
2023/02/10 01:06:34;;;;;;;11.32;8.55;;;;;;;2.44;100.00;103209.16;6029443;23;20055;-71
2023/02/10 01:09:01;;;;;;;13.07;7.60;;;;;;;2.42;100.00;103211.72;6061010;23;20053;-71
2023/02/10 01:11:30;;;;;;;13.07;8.50;;;;;;;2.43;100.00;103215.22;6028174;23;20110;-70
2023/02/10 01:13:56;;;;;;;7.47;5.70;;;;;;;2.11;100.00;103167.00;6053080;23;20397;-71
2023/02/10 01:16:23;;;;;;;19.23;8.27;;;;;;;2.11;100.00;103171.31;6067067;23;20036;-71
2023/02/10 01:18:49;;;;;;;13.65;8.45;;;;;;;2.22;100.00;103195.72;6042125;23;20021;-70
2023/02/10 01:21:19;;;;;;;10.98;9.13;;;;;;;2.17;100.00;103190.44;6034215;23;20669;-70
2023/02/10 01:23:46;;;;;;;9.98;8.00;;;;;;;2.36;100.00;103227.13;6030178;23;20439;-70
2023/02/10 01:26:13;;;;;;;14.25;8.35;;;;;;;1.88;100.00;103145.72;6033338;23;20380;-72
2023/02/10 01:28:41;;;;;;;12.57;8.52;;;;;;;2.37;100.00;103234.94;6052839;23;20030;-71
2023/02/10 01:31:09;;;;;;;8.70;6.82;;;;;;;2.37;100.00;103239.25;6041801;23;20109;-70
2023/02/10 01:33:36;;;;;;;9.93;6.07;;;;;;;2.31;100.00;103218.41;6035920;23;20023;-71
2023/02/10 01:36:08;;;;;;;20.77;8.07;;;;;;;2.36;100.00;103228.00;6067927;23;20085;-71
2023/02/10 01:38:35;;;;;;;5.65;5.15;;;;;;;0.64;100.00;102938.38;6063573;23;20646;-70
2023/02/10 01:41:02;;;;;;;10.32;7.43;;;;;;;2.05;100.00;103182.41;6030985;23;20038;-71
2023/02/10 01:43:29;;;;;;;23.80;8.02;;;;;;;2.27;100.00;103225.22;6058739;23;20030;-71
2023/02/10 01:45:56;;;;;;;11.80;7.90;;;;;;;2.15;100.00;103217.16;6052806;23;20374;-70
2023/02/10 01:48:24;;;;;;;6.82;6.30;;;;;;;1.87;100.00;103187.16;6056046;23;20626;-71
2023/02/10 01:50:59;;;;;;;10.13;7.53;;;;;;;1.52;100.00;103144.00;6051807;23;20030;-70
2023/02/10 01:53:26;;;;;;;11.18;7.50;;;;;;;0.77;100.00;103031.78;6055248;23;20339;-70
2023/02/10 01:55:56;;;;;;;12.40;7.72;;;;;;;1.93;100.00;103228.72;6046826;23;20011;-71
2023/02/10 01:58:26;;;;;;;7.53;6.18;;;;;;;1.91;100.00;103225.22;6053991;23;20128;-71
2023/02/10 02:00:53;;;;;;;5.38;4.90;;;;;;;1.89;100.00;103230.34;6022296;23;20055;-71
2023/02/10 02:03:22;;;;;;;7.85;7.15;;;;;;;1.51;100.00;103168.16;6029802;23;20472;-70
2023/02/10 02:05:48;;;;;;;8.10;7.10;;;;;;;1.74;100.00;103229.97;6031495;23;20033;-71
2023/02/10 02:08:27;;;;;;;13.05;7.63;;;;;;;1.82;100.00;103232.75;6055535;23;20034;-71
2023/02/10 02:11:03;;;;;;;10.63;6.25;;;;;;;1.74;100.00;103236.00;6057250;23;20022;-71
2023/02/10 02:13:32;;;;;;;6.43;5.80;;;;;;;1.69;100.00;103239.34;6053219;23;20104;-70
2023/02/10 02:16:19;;;;;;;6.72;5.80;;;;;;;1.74;100.00;103232.56;6027380;23;20068;-71
2023/02/10 02:18:55;;;;;;;10.60;8.60;;;;;;;1.22;100.00;103146.69;6058121;23;20432;-70
2023/02/10 02:21:50;;;;;;;7.82;6.20;;;;;;;1.77;100.00;103240.41;6026225;23;20030;-70
2023/02/10 02:24:35;;;;;;;11.48;6.80;;;;;;;1.73;100.00;103247.22;6053705;23;20035;-70
2023/02/10 02:27:05;;;;;;;8.40;7.57;;;;;;;1.76;100.00;103236.97;6029798;23;20192;-70
2023/02/10 02:29:44;;;;;;;10.32;6.85;;;;;;;1.82;100.00;103235.34;6058982;23;20050;-70
2023/02/10 02:32:16;;;;;;;9.50;5.75;;;;;;;1.82;100.00;103256.91;6026967;23;20031;-71
2023/02/10 02:34:55;;;;;;;;;;;;;;;1.81;100.00;103237.06;6037885;23;20015;-70
2023/02/10 02:37:35;;;;;;;6.97;5.78;;;;;;;1.72;100.00;103216.09;6020656;23;19910;-69
2023/02/10 02:40:02;;;;;;;10.25;8.02;;;;;;;0.94;100.00;103073.59;6057467;23;20551;-69
2023/02/10 02:42:32;;;;;;;14.40;6.75;;;;;;;1.93;100.00;103234.78;6033107;23;20027;-70
2023/02/10 02:45:04;;;;;;;7.05;5.93;;;;;;;1.66;100.00;103190.94;6057403;23;20014;-70
2023/02/10 02:47:40;;;;;;;18.90;7.75;;;;;;;1.90;100.00;103236.41;6030897;23;20026;-70
2023/02/10 02:50:17;;;;;;;10.65;6.25;;;;;;;1.89;100.00;103235.53;6066690;23;20021;-70
2023/02/10 02:52:53;;;;;;;7.18;5.82;;;;;;;1.89;100.00;103226.91;6060750;23;20019;-70
2023/02/10 02:55:37;;;;;;;11.88;8.40;;;;;;;1.88;100.00;103232.91;6028546;23;20051;-70
2023/02/10 02:58:17;;;;;;;7.97;5.57;;;;;;;1.86;100.00;103235.44;6055059;23;20532;-69
2023/02/10 03:00:45;;;;;;;10.00;8.65;;;;;;;0.77;100.00;103051.59;6053437;23;20022;-71
2023/02/10 03:03:12;;;;;;;14.10;9.52;;;;;;;1.83;100.00;103230.22;6055338;23;20029;-70
2023/02/10 03:05:38;;;;;;;5.78;5.35;;;;;;;1.82;100.00;103241.38;6026932;23;20081;-70
2023/02/10 03:08:05;;;;;;;9.20;6.68;;;;;;;1.36;100.00;103167.75;6057278;23;20179;-72
2023/02/10 03:10:32;;;;;;;9.50;7.93;;;;;;;1.62;100.00;103215.00;6025781;23;20029;-70
2023/02/10 03:12:58;;;;;;;11.90;8.27;;;;;;;1.31;100.00;103172.81;6062205;23;20089;-71
2023/02/10 03:15:25;;;;;;;10.75;7.28;;;;;;;1.62;100.00;103232.25;6027793;23;20476;-71
2023/02/10 03:17:51;;;;;;;10.25;7.55;;;;;;;0.99;100.00;103133.16;6060834;23;20041;-71
2023/02/10 03:20:18;;;;;;;14.48;8.10;;;;;;;1.51;100.00;103224.22;6049150;23;20042;-70
2023/02/10 03:22:44;;;;;;;11.05;8.80;;;;;;;1.02;100.00;103156.50;6055873;23;20054;-71
2023/02/10 03:25:11;;;;;;;11.75;8.73;;;;;;;0.98;100.00;103170.19;6031237;23;20022;-71
2023/02/10 03:27:40;;;;;;;9.50;7.68;;;;;;;1.27;100.00;103221.84;6033958;23;20017;-69
2023/02/10 03:30:07;;;;;;;7.78;7.05;;;;;;;1.15;100.00;103210.31;6028750;23;20102;-72
2023/02/10 03:32:34;;;;;;;9.77;6.05;;;;;;;0.77;100.00;103152.38;6060999;23;20026;-70
2023/02/10 03:35:00;;;;;;;17.08;8.57;;;;;;;1.12;100.00;103219.69;6027900;23;20038;-72
2023/02/10 03:37:27;;;;;;;7.40;6.80;;;;;;;0.24;100.00;103089.72;6057402;23;20629;-70
2023/02/10 03:39:53;;;;;;;6.20;5.70;;;;;;;0.52;100.00;103133.59;6028352;23;20089;-69
2023/02/10 03:42:20;;;;;;;9.80;6.47;;;;;;;0.70;100.00;103166.84;6034832;23;20030;-71
2023/02/10 03:44:46;;;;;;;6.88;6.32;;;;;;;0.49;100.00;103119.72;6026734;23;20035;-71
2023/02/10 03:47:13;;;;;;;10.43;7.90;;;;;;;0.86;100.00;103178.47;6057979;23;20094;-71
2023/02/10 03:49:39;;;;;;;9.85;7.47;;;;;;;0.80;100.00;103149.88;6025171;23;20023;-71
2023/02/10 03:52:05;;;;;;;7.88;7.15;;;;;;;0.87;100.00;103164.72;6043304;23;20025;-72
2023/02/10 03:54:33;;;;;;;8.95;8.25;;;;;;;0.87;100.00;103158.69;6026857;23;20034;-70
2023/02/10 03:57:00;;;;;;;11.25;7.20;;;;;;;0.01;100.00;103017.63;6058174;23;20030;-71
2023/02/10 03:59:26;;;;;;;12.63;7.28;;;;;;;0.83;100.00;103185.28;6029666;23;20602;-69
2023/02/10 04:01:53;;;;;;;5.75;5.35;;;;;;;0.39;100.00;103116.00;6057879;23;20029;-70
2023/02/10 04:04:20;;;;;;;13.15;7.55;;;;;;;0.79;100.00;103180.03;6033072;23;20120;-70
2023/02/10 04:06:46;;;;;;;11.35;7.97;;;;;;;0.64;100.00;103151.16;6052332;23;20269;-70
2023/02/10 04:09:15;;;;;;;10.02;6.10;;;;;;;0.44;100.00;103132.53;6058473;23;20387;-70
2023/02/10 04:11:41;;;;;;;11.75;5.60;;;;;;;0.46;100.00;103164.44;6027166;23;20162;-69
2023/02/10 04:14:08;;;;;;;8.57;7.80;;;;;;;0.45;100.00;103177.31;6053594;23;20072;-72
2023/02/10 04:16:34;;;;;;;15.82;6.85;;;;;;;0.43;100.00;103194.47;6059302;23;20038;-70
2023/02/10 04:19:02;;;;;;;27.85;7.82;;;;;;;0.36;100.00;103196.88;6052514;23;20041;-71
2023/02/10 04:21:29;;;;;;;7.50;6.70;;;;;;;0.25;100.00;103189.59;6026514;23;20111;-71
2023/02/10 04:23:57;;;;;;;8.35;7.28;;;;;;;0.19;100.00;103195.47;6055485;23;20453;-71
2023/02/10 04:26:24;;;;;;;6.88;5.45;;;;;;;0.13;100.00;103196.13;6022286;23;20065;-69
2023/02/10 04:28:50;;;;;;;6.85;6.10;;;;;;;-0.31;100.00;103127.63;6055743;23;20026;-69
2023/02/10 04:31:17;;;;;;;9.38;4.88;;;;;;;-0.44;100.00;103119.50;5998913;23;20037;-70
2023/02/10 04:33:44;;;;;;;6.65;5.82;;;;;;;-0.10;100.00;103192.84;6052017;23;20506;-70
2023/02/10 04:36:11;;;;;;;6.38;4.93;;;;;;;-0.59;100.00;103126.72;6030240;23;20046;-71
2023/02/10 04:38:37;;;;;;;6.60;5.88;;;;;;;-0.30;100.00;103194.78;6056383;23;20094;-71
2023/02/10 04:41:04;;;;;;;7.90;5.40;;;;;;;-1.78;100.00;102938.03;6013733;23;20113;-70
2023/02/10 04:43:34;;;;;;;8.40;5.53;;;;;;;-0.61;100.00;103151.59;6021749;23;20033;-70
2023/02/10 04:46:04;;;;;;;10.85;5.63;;;;;;;-0.45;100.00;103183.94;6039396;23;20026;-70
2023/02/10 04:48:30;;;;;;;4.70;4.13;;;;;;;-0.61;100.00;103159.31;6047139;23;20529;-70
2023/02/10 04:50:57;;;;;;;5.75;5.18;;;;;;;-0.72;100.00;103140.03;6029717;23;20034;-70
2023/02/10 04:53:23;;;;;;;5.80;5.32;;;;;;;-0.67;100.00;103167.72;6029514;23;20037;-70
2023/02/10 04:55:50;;;;;;;7.82;6.30;;;;;;;-0.45;100.00;103202.84;6022789;23;20023;-71
2023/02/10 04:58:17;;;;;;;6.22;5.72;;;;;;;-0.44;100.00;103202.03;6030259;23;20018;-71
2023/02/10 05:00:43;;;;;;;8.50;6.13;;;;;;;-0.37;100.00;103204.84;6027856;23;20114;-71
2023/02/10 05:03:10;;;;;;;7.18;5.35;;;;;;;-0.54;100.00;103187.09;6027719;23;20034;-71
2023/02/10 05:05:36;;;;;;;6.13;4.25;;;;;;;-0.32;100.00;103205.84;6057481;23;20674;-71
2023/02/10 05:08:03;;;;;;;7.88;6.07;;;;;;;-0.31;100.00;103202.47;6056563;23;20039;-70
2023/02/10 05:10:29;;;;;;;10.63;6.55;;;;;;;-0.65;100.00;103163.50;6031869;23;20099;-70
2023/02/10 05:12:56;;;;;;;4.00;3.78;;;;;;;-0.89;100.00;103124.88;6030843;23;20198;-70
2023/02/10 05:15:22;;;;;;;6.50;6.00;;;;;;;-0.46;100.00;103197.63;6058794;23;20153;-70
2023/02/10 05:17:48;;;;;;;5.35;4.85;;;;;;;-0.79;100.00;103144.09;6057629;23;20178;-70
2023/02/10 05:20:15;;;;;;;9.55;6.57;;;;;;;-0.59;100.00;103170.56;6038237;23;20139;-70
2023/02/10 05:22:42;;;;;;;5.30;4.90;;;;;;;-0.81;100.00;103149.19;6052817;23;20038;-70
2023/02/10 05:25:11;;;;;;;5.13;4.78;;;;;;;-0.60;100.00;103186.88;6009540;23;20030;-71
2023/02/10 05:27:38;;;;;;;5.45;4.47;;;;;;;-0.74;100.00;103155.47;6029248;23;20088;-70
2023/02/10 05:30:06;;;;;;;4.38;3.97;;;;;;;-1.08;100.00;103094.16;6032280;23;20472;-70
2023/02/10 05:32:33;;;;;;;4.80;4.43;;;;;;;-0.61;100.00;103179.97;6002389;23;20719;-70
2023/02/10 05:34:59;;;;;;;11.57;4.88;;;;;;;-0.46;100.00;103179.59;6057119;23;20059;-70
2023/02/10 05:37:25;;;;;;;9.05;5.97;;;;;;;-0.66;100.00;103169.50;6022608;23;20581;-70
2023/02/10 05:39:52;;;;;;;6.63;4.90;;;;;;;-0.88;100.00;103131.78;6039224;23;20108;-69
2023/02/10 05:42:18;;;;;;;9.23;5.93;;;;;;;-1.16;100.00;103098.13;6062340;23;20026;-70
2023/02/10 05:44:45;;;;;;;4.97;4.68;;;;;;;-0.71;100.00;103185.63;6030605;23;20360;-70
2023/02/10 05:47:11;;;;;;;4.47;4.18;;;;;;;-0.79;100.00;103187.94;6056062;23;20544;-71
2023/02/10 05:49:38;;;;;;;7.35;5.10;;;;;;;-1.41;100.00;103107.56;6059526;23;20041;-70
2023/02/10 05:52:04;;;;;;;4.80;4.47;;;;;;;-1.16;100.00;103157.38;6007707;23;20027;-70
2023/02/10 05:54:31;;;;;;;4.53;4.13;;;;;;;-0.96;100.00;103192.50;6062221;23;20025;-70
2023/02/10 05:56:57;;;;;;;6.70;6.15;;;;;;;-1.01;100.00;103194.91;6059314;23;20064;-69
2023/02/10 05:59:52;;;;;;;5.53;5.05;;;;;;;-2.14;100.00;103008.81;6032476;23;20029;-70
2023/02/10 06:02:18;;;;;;;7.22;5.55;;;;;;;-1.08;100.00;103195.50;6056699;23;20022;-68
2023/02/10 06:04:45;;;;;;;8.85;5.13;;;;;;;-1.51;100.00;103118.34;6001321;23;20133;-71
2023/02/10 06:07:14;;;;;;;6.00;5.18;;;;;;;-1.17;100.00;103173.69;6052466;23;20032;-71
2023/02/10 06:10:08;;;;;;;5.82;4.97;;;;;;;-1.62;100.00;103112.81;6058042;23;20029;-71
2023/02/10 06:12:34;;;;;;;4.93;4.53;;;;;;;-1.55;100.00;103132.81;6025020;23;20629;-71
2023/02/10 06:15:00;;;;;;;5.68;5.13;;;;;;;-3.77;100.00;102765.28;6060047;23;20554;-72
2023/02/10 06:17:27;;;;;;;5.45;4.32;;;;;;;-1.47;100.00;103162.28;6026537;23;20043;-71
2023/02/10 06:20:21;;;;;;;4.55;4.25;;;;;;;-1.62;100.00;103139.44;6052077;23;20057;-71
2023/02/10 06:22:48;;;;;;;6.68;4.55;;;;;;;-1.82;100.00;103115.53;6054629;23;20800;-71
2023/02/10 06:25:14;;;;;;;4.85;4.25;;;;;;;-1.43;100.00;103192.50;6032068;23;20096;-71
2023/02/10 06:27:41;;;;;;;5.65;4.45;;;;;;;-1.49;100.00;103199.13;6058945;23;20031;-71
2023/02/10 06:30:08;;;;;;;5.35;4.85;;;;;;;-1.53;100.00;103203.28;6059922;23;20660;-69
2023/02/10 06:32:34;;;;;;;4.72;4.43;;;;;;;-1.56;100.00;103200.59;6031564;23;20027;-69
2023/02/10 06:35:01;;;;;;;8.23;6.22;;;;;;;-1.59;100.00;103204.75;6057858;23;20026;-71
2023/02/10 06:37:28;;;;;;;9.85;4.30;;;;;;;-1.61;100.00;103208.13;6055957;23;20026;-70
2023/02/10 06:39:54;;;;;;;7.68;4.53;;;;;;;-2.04;100.00;103129.25;6035319;23;20437;-70
2023/02/10 06:42:21;;;;;;;4.90;4.55;;;;;;;-1.65;100.00;103205.38;6057114;23;20025;-71
2023/02/10 06:45:15;;;;;;;5.35;3.45;;;;;;;-1.70;100.00;103212.94;6023082;23;20051;-70
2023/02/10 06:47:45;;;;;;;6.75;5.55;;;;;;;-1.76;100.00;103212.69;6026010;23;20099;-70
2023/02/10 06:50:13;;;;;;;7.97;5.93;;;;;;;-1.92;100.00;103179.47;6051990;23;20592;-70
2023/02/10 06:52:40;;;;;;;9.35;6.38;;;;;;;-1.72;100.00;103218.84;6008497;23;20034;-72
2023/02/10 06:55:07;;;;;;;4.50;4.20;;;;;;;-1.79;100.00;103206.53;6052131;23;20105;-69
2023/02/10 06:57:35;;;;;;;4.28;3.97;;;;;;;-2.02;100.00;103171.38;6036608;23;20081;-70
2023/02/10 07:00:05;;;;;;;4.20;3.83;;;;;;;-1.73;100.00;103224.81;6024932;23;20094;-71
2023/02/10 07:02:58;;;;;;;6.53;4.97;;;;;;;-2.14;100.00;103154.56;6039236;23;20066;-70
2023/02/10 07:05:25;;;;;;;6.55;4.18;;;;;;;-2.01;100.00;103177.38;6029887;23;20332;-69
2023/02/10 07:07:53;;;;;;;5.50;5.10;;;;;;;-1.76;100.00;103223.00;6056887;23;20310;-70
2023/02/10 07:10:21;;;;;;;5.78;5.45;;;;;;;-1.97;100.00;103197.25;6019715;23;20528;-70
2023/02/10 07:12:47;;;;;;;5.97;4.72;;;;;;;-1.78;100.00;103213.44;6024573;23;20053;-70
2023/02/10 07:15:14;;;;;;;15.70;5.47;;;;;;;-3.08;100.00;102997.41;6028985;23;20081;-70
2023/02/10 07:17:40;;;;;;;3.95;3.65;;;;;;;-1.81;100.00;103214.19;6030615;23;20745;-70
2023/02/10 07:20:34;;;;;;;6.38;5.80;;;;;;;-1.81;100.00;103211.63;6052795;23;20041;-70
2023/02/10 07:23:01;;;;;;;8.15;5.47;;;;;;;-1.91;100.00;103183.78;6058084;23;20113;-70
2023/02/10 07:25:27;;;;;;;5.18;3.97;;;;;;;-1.70;100.00;103215.50;6036241;23;20190;-70
2023/02/10 07:27:53;;;;;;;5.10;4.80;;;;;;;-2.07;100.00;103154.84;6053025;23;20020;-69
2023/02/10 07:30:48;;;;;;;4.55;4.13;;;;;;;-1.58;100.00;103211.63;6054189;23;20026;-71
2023/02/10 07:33:14;;;;;;;6.45;6.07;;;;;;;-1.95;100.00;103130.44;6016443;23;20803;-70
2023/02/10 07:35:41;;;;;;;8.18;5.82;;;;;;;-2.72;100.00;103012.56;6049502;23;20076;-70
2023/02/10 07:38:07;;;;;;;14.35;4.75;;;;;;;-1.54;100.00;103180.03;6048248;23;20101;-70
2023/02/10 07:40:34;;;;;;;6.00;5.38;;;;;;;-1.37;100.00;103206.44;6050759;23;20386;-70
2023/02/10 07:43:01;;;;;;;6.28;4.47;;;;;;;-1.32;100.00;103204.91;6022587;23;20273;-69
2023/02/10 07:45:30;;;;;;;5.63;5.20;;;;;;;-1.31;100.00;103204.97;6016292;23;20030;-69
2023/02/10 07:48:25;;;;;;;5.15;4.68;;;;;;;-1.25;100.00;103206.91;6047617;23;20536;-70
2023/02/10 07:50:52;;;;;;;5.90;5.13;;;;;;;-1.22;100.00;103204.44;6027914;23;20022;-69
2023/02/10 07:53:21;;;;;;;5.28;4.85;;;;;;;-1.19;100.00;103207.13;6021722;23;20027;-70
2023/02/10 07:55:48;;;;;;;7.60;6.97;;;;;;;-2.39;100.00;102995.84;6046242;23;20323;-70
2023/02/10 07:58:15;;;;;;;9.45;5.15;;;;;;;-1.12;100.00;103206.53;6049074;23;20026;-70
2023/02/10 08:00:42;;;;;;;6.18;5.60;;;;;;;-1.54;100.00;103121.72;6021119;23;20039;-70
2023/02/10 08:03:13;;;;;;;15.23;6.85;;;;;;;-1.02;100.00;103210.34;6050988;23;20513;-69
2023/02/10 08:05:41;;;;;;;6.30;5.73;;;;;;;-0.99;100.00;103205.28;6024740;23;20290;-71
2023/02/10 08:08:09;;;;;;;6.68;5.85;;;;;;;-1.39;100.00;103138.53;6050943;23;20333;-71
2023/02/10 08:10:39;;;;;;;5.90;5.07;;;;;;;-0.92;100.00;103209.84;6021421;23;20007;-71
2023/02/10 08:13:33;;;;;;;12.80;5.03;;;;;;;-1.32;100.00;103132.78;6051815;23;20033;-71
2023/02/10 08:16:03;;;;;;;7.30;6.60;;;;;;;-0.81;100.00;103212.78;6025158;23;20106;-71
2023/02/10 08:18:29;;;;;;;5.97;4.55;;;;;;;-1.23;100.00;103130.53;6039588;23;20267;-70
2023/02/10 08:20:59;;;;;;;12.43;6.60;;;;;;;-1.02;100.00;103154.50;6045575;23;20026;-71
2023/02/10 08:23:25;;;;;;;9.70;5.05;;;;;;;-0.59;100.00;103208.38;6028106;23;20038;-71
2023/02/10 08:25:52;;;;;;;9.02;6.55;;;;;;;-0.94;100.00;103141.00;6046146;23;20045;-71
2023/02/10 08:28:19;;;;;;;4.28;3.97;;;;;;;-1.15;100.00;103093.03;6051978;23;20130;-71
2023/02/10 08:30:46;;;;;;;5.72;5.22;;;;;;;-0.62;100.00;103165.31;6017023;23;20525;-71
2023/02/10 08:33:12;;;;;;;5.72;5.03;;;;;;;-0.25;100.00;103208.69;6022260;23;20563;-71
2023/02/10 08:35:40;;;;;;;12.55;6.05;;;;;;;0.02;100.00;103237.94;6018684;23;20097;-71
2023/02/10 08:38:08;;;;;;;11.57;6.10;;;;;;;0.14;100.00;103223.72;6047467;23;20454;-71
2023/02/10 08:40:37;;;;;;;8.98;5.82;;;;;;;-0.12;100.00;103162.63;6022864;23;20034;-71
2023/02/10 08:43:04;;;;;;;5.68;5.15;;;;;;;0.37;100.00;103219.25;6027729;23;20073;-71
2023/02/10 08:45:30;;;;;;;13.32;6.82;;;;;;;0.15;100.00;103172.94;6046923;23;20063;-71
2023/02/10 08:47:57;;;;;;;4.82;4.40;;;;;;;0.19;100.00;103154.13;6051537;23;20022;-70
2023/02/10 08:50:23;;;;;;;5.10;4.72;;;;;;;0.49;100.00;103185.19;6015231;23;20026;-70
2023/02/10 08:52:50;;;;;;;6.82;6.20;;;;;;;0.92;100.00;103232.97;6029904;23;20248;-71
2023/02/10 08:55:16;;;;;;;7.15;5.00;;;;;;;0.66;100.00;103166.69;6020324;23;20019;-71
2023/02/10 08:57:43;;;;;;;7.78;5.82;;;;;;;0.68;100.00;103146.94;6049923;23;20038;-71
2023/02/10 09:00:37;;;;;;;7.25;6.57;;;;;;;0.85;100.00;103157.78;6023181;23;20090;-72
2023/02/10 09:03:03;;;;;;;6.68;6.07;;;;;;;0.28;100.00;103014.97;6052336;23;20033;-70
2023/02/10 09:05:30;;;;;;;12.68;6.63;;;;;;;1.75;100.00;103227.41;6020212;23;20018;-69
2023/02/10 09:07:58;;;;;;;7.85;6.28;;;;;;;1.29;100.00;103125.34;6046038;23;20022;-69
2023/02/10 09:10:25;;;;;;;7.55;5.88;;;;;;;1.66;100.00;103169.34;6020385;23;20428;-69
2023/02/10 09:12:52;;;;;;;6.65;6.03;;;;;;;1.23;100.00;103062.22;6048090;23;20128;-69
2023/02/10 09:15:18;;;;;;;11.05;7.35;;;;;;;2.37;100.00;103234.09;6023911;23;20098;-71
2023/02/10 09:17:45;;;;;;;13.63;7.75;;;;;;;2.23;100.00;103181.06;6036212;23;20229;-70
2023/02/10 09:20:11;;;;;;;15.55;8.48;;;;;;;2.74;100.00;103227.97;6050202;23;20367;-70
2023/02/10 09:22:38;;;;;;;12.35;7.93;;;;;;;2.99;100.00;103228.50;6054887;23;20022;-69
2023/02/10 09:25:05;;;;;;;9.40;5.90;;;;;;;3.19;100.00;103245.31;6027039;23;20566;-70
2023/02/10 09:27:31;;;;;;;11.95;7.13;;;;;;;2.89;100.00;103160.00;6029885;23;20026;-71
2023/02/10 09:29:58;;;;;;;10.98;7.55;;;;;;;2.97;100.00;103166.19;6026568;23;20018;-70
2023/02/10 09:32:25;;;;;;;13.68;9.45;;;;;;;3.54;100.00;103249.44;6054975;23;20124;-71
2023/02/10 09:34:51;;;;;;;14.68;8.73;;;;;;;3.62;100.00;103234.00;6055757;23;20015;-72
2023/02/10 09:37:21;;;;;;;14.80;8.85;;;;;;;3.58;100.00;103231.31;6056666;23;20071;-70
2023/02/10 09:40:20;;;;;;;16.85;7.03;;;;;;;3.30;100.00;103175.44;6051881;23;20447;-69
2023/02/10 09:43:17;;;;;;;8.70;7.82;;;;;;;3.85;100.00;103263.84;6052374;23;20041;-70
2023/02/10 09:45:48;;;;;;;8.90;7.32;;;;;;;3.47;100.00;103204.31;6030474;23;20022;-71
2023/02/10 09:49:11;;;;;;;15.40;7.88;;;;;;;3.93;100.00;103275.22;6028136;23;20205;-70
2023/02/10 09:52:02;;;;;;;12.98;6.90;;;;;;;4.06;100.00;103291.03;6002377;23;20589;-70
2023/02/10 09:54:31;;;;;;;11.82;8.05;;;;;;;4.17;100.00;103315.47;6025994;23;20027;-69
2023/02/10 09:57:05;;;;;;;8.30;6.47;;;;;;;3.48;100.00;103135.94;6054493;23;20159;-70
2023/02/10 09:59:36;;;;;;;14.02;9.25;;;;;;;3.80;100.00;103200.53;6053093;23;20027;-70
2023/02/10 10:02:21;;;;;;;21.65;10.52;;;;;;;4.49;100.00;103292.59;6026700;23;20194;-70
2023/02/10 10:04:48;;;;;;;9.75;8.23;;;;;;;4.52;100.00;103296.94;6028781;23;20183;-70
2023/02/10 10:07:26;;;;;;;11.75;8.10;;;;;;;4.74;100.00;103301.59;6027156;23;20026;-71
2023/02/10 10:10:27;;;;;;;17.40;9.38;;;;;;;4.46;100.00;103247.44;6051371;23;20140;-70
2023/02/10 10:12:54;;;;;;;12.82;9.30;;;;;;;4.32;100.00;103222.13;6026481;23;20456;-71
2023/02/10 10:15:27;;;;;;;20.65;10.30;;;;;;;4.78;100.00;103300.78;6029633;23;20409;-70
2023/02/10 10:18:03;;;;;;;9.00;7.78;;;;;;;4.75;100.00;103300.75;6027144;23;20042;-71
2023/02/10 10:20:35;;;;;;;13.95;10.38;;;;;;;4.91;100.00;103306.16;6028273;23;20025;-69
2023/02/10 10:23:44;;;;;;;15.27;9.18;;;;;;;5.12;100.00;103296.03;6057193;23;20042;-71
2023/02/10 10:26:16;;;;;;;10.07;7.82;;;;;;;5.35;100.00;103305.84;6000773;23;20011;-70
2023/02/10 10:29:08;;;;;;;16.38;9.20;;;;;;;5.51;100.00;103309.50;6040789;23;20018;-73
2023/02/10 10:31:39;;;;;;;20.27;9.55;;;;;;;5.60;100.00;103313.06;6053825;23;20532;-70
2023/02/10 10:34:16;;;;;;;8.45;7.65;;;;;;;5.23;100.00;103246.69;6055744;23;20030;-71
2023/02/10 10:36:45;;;;;;;14.85;10.10;;;;;;;5.89;100.00;103309.00;6053963;23;20034;-70
2023/02/10 10:39:34;;;;;;;12.55;10.35;;;;;;;6.13;100.00;103311.00;6046101;23;20492;-70
2023/02/10 10:42:06;;;;;;;13.48;9.23;;;;;;;6.32;99.73;103309.44;6039487;23;20050;-69
2023/02/10 10:44:35;;;;;;;;;;;;;;;6.40;98.40;103297.31;6051072;23;20492;-70
2023/02/10 10:47:37;;;;;;;13.30;8.98;;;;;;;6.52;96.96;103289.56;6015669;23;20029;-70
2023/02/10 10:50:11;;;;;;;14.23;10.32;;;;;;;6.45;94.17;103266.91;6007362;23;20018;-70
2023/02/10 10:52:41;;;;;;;15.55;10.98;;;;;;;5.96;92.46;103199.66;6011136;23;20487;-71
2023/02/10 10:55:38;;;;;;;14.57;10.60;;;;;;;6.54;92.27;103268.72;6048538;23;20054;-70
2023/02/10 10:58:25;;;;;;;16.90;10.77;;;;;;;6.67;91.44;103259.22;6020353;23;20026;-71
2023/02/10 11:00:54;;;;;;;19.88;9.10;;;;;;;6.63;90.65;103202.66;6026366;23;20123;-71
2023/02/10 11:03:20;;;;;;;37.85;12.13;;;;;;;6.90;89.39;103246.28;6015772;23;20035;-71
2023/02/10 11:06:09;;;;;;;16.23;10.43;;;;;;;7.17;89.14;103242.88;6024331;23;20018;-71
2023/02/10 11:08:44;;;;;;;37.40;11.85;;;;;;;7.34;88.54;103240.34;6049469;23;20096;-70
2023/02/10 11:11:15;;;;;;;23.25;10.90;;;;;;;7.25;85.70;103216.78;6002716;23;20072;-70
2023/02/10 11:14:10;;;;;;;22.75;12.13;;;;;;;6.86;84.07;103177.53;6050820;23;20026;-70
2023/02/10 11:16:44;;;;;;;22.13;12.95;;;;;;;6.61;85.62;103149.59;6055157;23;20500;-72
2023/02/10 11:19:18;;;;;;;21.48;11.68;;;;;;;7.21;85.41;103202.84;6013690;23;20509;-71
2023/02/10 11:21:44;;;;;;;13.07;8.40;;;;;;;7.47;84.23;103199.41;6044725;23;20029;-73
2023/02/10 11:24:22;;;;;;;15.55;9.13;;;;;;;6.87;82.23;103087.03;6033874;23;20014;-71
2023/02/10 11:26:56;;;;;;;15.18;9.73;;;;;;;7.31;80.78;103120.16;6024912;23;20038;-71
2023/02/10 11:29:24;;;;;;;29.13;10.70;;;;;;;7.73;79.85;103157.59;5999446;23;20089;-71
2023/02/10 11:31:52;;;;;;;14.18;9.13;;;;;;;7.92;79.71;103148.00;6029074;23;20238;-72
2023/02/10 11:34:25;;;;;;;14.90;9.20;;;;;;;8.14;79.35;103147.06;6056414;23;20481;-70